createdAt,value
2019-04-25T00:01:38.352Z,25.45
2019-04-25T00:04:07.931Z,24.75
2019-04-25T00:06:39.057Z,22.55
2019-04-25T00:09:14.399Z,21.42
2019-04-25T00:11:46.543Z,23.20
2019-04-25T00:14:18.036Z,22.23
2019-04-25T00:16:47.682Z,22.27
2019-04-25T00:19:17.079Z,22.52
2019-04-25T00:21:48.843Z,28.55
2019-04-25T00:24:26.483Z,22.75
2019-04-25T00:26:55.902Z,27.17
2019-04-25T00:29:25.331Z,24.23
2019-04-25T00:31:54.745Z,23.75
2019-04-25T00:34:24.160Z,26.15
2019-04-25T00:36:58.327Z,22.73
2019-04-25T00:39:28.142Z,27.27
2019-04-25T00:41:57.606Z,28.77
2019-04-25T00:44:28.659Z,26.05
2019-04-25T00:46:58.043Z,25.65
2019-04-25T00:49:27.482Z,25.15
2019-04-25T00:51:57.058Z,25.20
2019-04-25T00:54:26.523Z,27.60
2019-04-25T00:56:55.855Z,28.77
2019-04-25T00:59:29.516Z,29.25
2019-04-25T01:02:03.373Z,26.30
2019-04-25T01:04:33.791Z,27.05
2019-04-25T01:07:03.227Z,26.95
2019-04-25T01:09:32.632Z,27.37
2019-04-25T01:12:04.082Z,24.15
2019-04-25T01:14:33.779Z,26.82
2019-04-25T01:17:04.254Z,30.92
2019-04-25T01:19:34.419Z,26.40
2019-04-25T01:22:06.406Z,26.42
2019-04-25T01:24:35.749Z,26.87
2019-04-25T01:27:05.751Z,29.23
2019-04-25T01:29:35.172Z,26.52
2019-04-25T01:32:05.346Z,29.67
2019-04-25T01:34:36.323Z,29.42
2019-04-25T01:37:10.282Z,26.10
2019-04-25T01:39:41.469Z,27.58
2019-04-25T01:42:24.924Z,28.87
2019-04-25T01:44:56.838Z,30.88
2019-04-25T01:47:28.368Z,28.20
2019-04-25T01:49:58.487Z,25.37
2019-04-25T01:52:28.030Z,27.13
2019-04-25T01:54:57.536Z,31.07
2019-04-25T01:57:27.540Z,26.62
2019-04-25T01:59:57.521Z,29.15
2019-04-25T02:02:28.598Z,28.77
2019-04-25T02:04:59.402Z,31.35
2019-04-25T02:07:29.043Z,30.90
2019-04-25T02:09:58.415Z,29.23
2019-04-25T02:12:33.524Z,32.15
2019-04-25T02:15:05.942Z,29.90
2019-04-25T02:17:34.236Z,28.98
2019-04-25T02:20:05.696Z,28.90
2019-04-25T02:22:35.703Z,26.27
2019-04-25T02:25:07.507Z,26.55
2019-04-25T02:27:36.830Z,29.82
2019-04-25T02:30:07.256Z,29.72
2019-04-25T02:32:37.200Z,30.08
2019-04-25T02:35:09.263Z,30.08
2019-04-25T02:37:39.914Z,26.45
2019-04-25T02:40:09.548Z,29.65
2019-04-25T02:42:38.901Z,30.65
2019-04-25T02:45:27.378Z,28.75
2019-04-25T02:48:14.223Z,30.15
2019-04-25T02:50:46.294Z,29.55
2019-04-25T02:53:24.020Z,29.50
2019-04-25T02:55:53.873Z,31.48
2019-04-25T02:58:24.306Z,35.92
2019-04-25T03:01:02.864Z,28.62
2019-04-25T03:03:25.279Z,30.37
2019-04-25T03:05:55.036Z,30.12
2019-04-25T03:08:24.665Z,29.77
2019-04-25T03:10:54.436Z,31.10
2019-04-25T03:13:24.602Z,29.85
2019-04-25T03:15:55.701Z,30.80
2019-04-25T03:18:26.939Z,30.68
2019-04-25T03:20:59.193Z,32.08
2019-04-25T03:23:35.155Z,33.92
2019-04-25T03:26:06.148Z,28.40
2019-04-25T03:28:37.005Z,29.27
2019-04-25T03:31:12.661Z,26.50
2019-04-25T03:33:38.480Z,22.10
2019-04-25T03:36:09.209Z,23.32
2019-04-25T03:38:39.204Z,22.75
2019-04-25T03:41:08.762Z,17.37
2019-04-25T03:43:38.320Z,19.02
2019-04-25T03:46:08.255Z,15.30
2019-04-25T03:48:37.738Z,17.35
2019-04-25T03:51:07.907Z,15.28
2019-04-25T03:53:37.531Z,15.32
2019-04-25T03:56:07.386Z,15.88
2019-04-25T03:58:37.208Z,16.42
2019-04-25T04:01:08.198Z,13.53
2019-04-25T04:03:37.748Z,13.83
2019-04-25T04:06:08.586Z,16.40
2019-04-25T04:08:38.526Z,18.10
2019-04-25T04:11:08.675Z,14.28
2019-04-25T04:13:38.180Z,16.27
2019-04-25T04:16:08.410Z,14.05
2019-04-25T04:18:44.066Z,13.10
2019-04-25T04:21:33.335Z,13.03
2019-04-25T04:24:05.234Z,12.85
2019-04-25T04:26:35.636Z,14.53
2019-04-25T04:29:05.809Z,12.33
2019-04-25T04:31:40.092Z,14.35
2019-04-25T04:34:14.329Z,14.45
2019-04-25T04:36:43.757Z,14.03
2019-04-25T04:39:16.483Z,16.70
2019-04-25T04:41:46.013Z,16.02
2019-04-25T04:44:16.235Z,19.17
2019-04-25T04:46:46.048Z,16.00
2019-04-25T04:49:15.418Z,19.02
2019-04-25T04:51:44.859Z,15.05
2019-04-25T04:54:14.662Z,18.50
2019-04-25T04:56:45.296Z,16.57
2019-04-25T04:59:15.454Z,20.00
2019-04-25T05:01:59.896Z,15.60
2019-04-25T05:04:30.956Z,16.17
2019-04-25T05:07:08.150Z,11.97
2019-04-25T05:09:37.497Z,12.50
2019-04-25T05:12:06.814Z,9.30
2019-04-25T05:14:36.155Z,10.30
2019-04-25T05:17:06.527Z,10.55
2019-04-25T05:19:36.768Z,11.60
2019-04-25T05:22:06.173Z,11.05
2019-04-25T05:24:35.524Z,8.70
2019-04-25T05:27:04.850Z,10.72
2019-04-25T05:29:34.215Z,10.80
2019-04-25T05:32:04.241Z,8.95
2019-04-25T05:34:34.445Z,10.30
2019-04-25T05:37:04.077Z,9.23
2019-04-25T05:39:34.836Z,8.68
2019-04-25T05:42:07.728Z,7.78
2019-04-25T05:44:37.207Z,10.35
2019-04-25T05:47:06.534Z,8.00
2019-04-25T05:49:35.913Z,7.40
2019-04-25T05:52:05.286Z,7.12
2019-04-25T05:54:35.254Z,9.08
2019-04-25T05:57:05.319Z,8.83
2019-04-25T05:59:36.317Z,10.48
2019-04-25T06:02:05.661Z,10.30
2019-04-25T06:04:37.479Z,7.00
2019-04-25T06:07:06.834Z,7.70
2019-04-25T06:09:39.181Z,7.97
2019-04-25T06:12:13.462Z,9.90
2019-04-25T06:14:48.430Z,10.13
2019-04-25T06:17:26.001Z,8.65
2019-04-25T06:19:56.981Z,8.98
2019-04-25T06:22:44.711Z,6.17
2019-04-25T06:25:21.124Z,6.10
2019-04-25T06:27:59.218Z,10.03
2019-04-25T06:30:29.658Z,6.72
2019-04-25T06:32:59.135Z,9.85
2019-04-25T06:35:29.427Z,6.95
2019-04-25T06:37:59.083Z,4.85
2019-04-25T06:40:30.404Z,5.53
2019-04-25T06:42:59.551Z,7.70
2019-04-25T06:45:40.778Z,6.05
2019-04-25T06:48:19.134Z,6.65
2019-04-25T06:50:50.236Z,6.10
2019-04-25T06:53:19.719Z,5.25
2019-04-25T06:55:49.287Z,6.67
2019-04-25T06:58:19.550Z,6.30
2019-04-25T07:00:57.970Z,4.87
2019-04-25T07:03:19.923Z,7.30
2019-04-25T07:05:49.259Z,6.00
2019-04-25T07:08:18.598Z,6.25
2019-04-25T07:10:48.492Z,4.70
2019-04-25T07:13:17.874Z,4.45
2019-04-25T07:15:47.925Z,4.92
2019-04-25T07:18:17.262Z,11.83
2019-04-25T07:20:46.737Z,6.12
2019-04-25T07:23:16.122Z,6.22
2019-04-25T07:25:47.163Z,4.50
2019-04-25T07:28:28.990Z,6.62
2019-04-25T07:31:16.066Z,5.60
2019-04-25T07:33:56.074Z,5.35
2019-04-25T07:36:25.777Z,10.15
2019-04-25T07:39:05.759Z,3.67
2019-04-25T07:41:27.640Z,3.95
2019-04-25T07:43:57.104Z,5.15
2019-04-25T07:46:26.505Z,5.17
2019-04-25T07:48:55.975Z,2.37
2019-04-25T07:51:26.715Z,3.30
2019-04-25T07:53:56.363Z,6.45
2019-04-25T07:56:25.804Z,6.10
2019-04-25T07:58:55.607Z,5.05
2019-04-25T08:01:25.031Z,3.70
2019-04-25T08:03:54.397Z,4.80
2019-04-25T08:06:24.267Z,3.77
2019-04-25T08:08:54.580Z,4.08
2019-04-25T08:11:24.147Z,2.52
2019-04-25T08:14:14.405Z,3.12
2019-04-25T08:16:48.927Z,2.50
2019-04-25T08:19:19.510Z,3.67
2019-04-25T08:21:49.735Z,3.12
2019-04-25T08:24:19.848Z,1.35
2019-04-25T08:26:49.334Z,2.55
2019-04-25T08:29:18.714Z,2.37
2019-04-25T08:31:48.168Z,2.85
2019-04-25T08:34:20.001Z,1.82
2019-04-25T08:36:49.388Z,4.10
2019-04-25T08:39:18.728Z,2.12
2019-04-25T08:41:48.032Z,2.65
2019-04-25T08:44:17.384Z,2.15
2019-04-25T08:46:48.720Z,2.10
2019-04-25T08:49:28.548Z,4.60
2019-04-25T08:51:59.192Z,4.47
2019-04-25T08:54:42.463Z,5.15
2019-04-25T08:57:15.333Z,2.50
2019-04-25T08:59:52.462Z,5.35
2019-04-25T09:02:38.421Z,2.75
2019-04-25T09:05:16.085Z,4.92
2019-04-25T09:07:45.687Z,5.83
2019-04-25T09:10:15.201Z,4.72
2019-04-25T09:12:45.377Z,4.80
2019-04-25T09:15:15.061Z,3.35
2019-04-25T09:17:46.920Z,5.03
2019-04-25T09:20:15.907Z,3.52
2019-04-25T09:22:45.552Z,5.10
2019-04-25T09:25:15.996Z,5.78
2019-04-25T09:27:47.078Z,2.92
2019-04-25T09:30:22.135Z,2.67
2019-04-25T09:33:30.255Z,5.37
2019-04-25T09:40:00.432Z,2.90
2019-04-25T09:42:41.826Z,4.20
2019-04-25T09:52:10.842Z,6.37
2019-04-25T09:54:48.317Z,4.33
2019-04-25T09:57:23.345Z,4.78
2019-04-25T09:59:53.239Z,6.33
2019-04-25T10:02:23.008Z,4.03
2019-04-25T10:04:52.428Z,3.55
2019-04-25T10:07:21.841Z,4.00
2019-04-25T10:09:51.419Z,4.00
2019-04-25T10:12:23.110Z,4.72
2019-04-25T10:14:58.644Z,3.77
2019-04-25T10:17:27.993Z,2.90
2019-04-25T10:19:57.433Z,2.55
2019-04-25T10:22:27.829Z,2.65
2019-04-25T10:25:00.560Z,3.95
2019-04-25T10:27:28.424Z,3.75
2019-04-25T10:29:57.768Z,4.08
2019-04-25T10:32:27.221Z,3.72
2019-04-25T10:34:56.618Z,6.00
2019-04-25T10:37:26.182Z,4.55
2019-04-25T10:39:55.723Z,2.10
2019-04-25T10:42:25.759Z,6.28
2019-04-25T10:44:56.623Z,4.05
2019-04-25T10:47:26.391Z,2.98
2019-04-25T10:49:55.790Z,4.67
2019-04-25T10:52:25.108Z,6.45
2019-04-25T10:54:54.440Z,2.85
2019-04-25T10:57:24.917Z,6.90
2019-04-25T11:00:06.282Z,8.40
2019-04-25T11:02:29.357Z,6.78
2019-04-25T11:05:03.525Z,2.47
2019-04-25T11:07:33.949Z,1.50
2019-04-25T11:10:05.027Z,3.52
2019-04-25T11:12:35.035Z,4.35
2019-04-25T11:15:06.301Z,3.22
2019-04-25T11:17:36.035Z,3.27
2019-04-25T11:20:06.252Z,3.75
2019-04-25T11:22:35.579Z,4.28
2019-04-25T11:25:05.454Z,1.95
2019-04-25T11:27:35.027Z,5.35
2019-04-25T11:30:10.832Z,2.70
2019-04-25T11:32:37.258Z,12.30
2019-04-25T11:35:07.122Z,5.75
2019-04-25T11:37:36.462Z,3.35
2019-04-25T11:40:08.967Z,3.65
2019-04-25T11:42:38.332Z,5.03
2019-04-25T11:45:09.327Z,4.37
2019-04-25T11:47:38.655Z,3.30
2019-04-25T11:50:09.118Z,1.92
2019-04-25T11:52:38.551Z,3.47
2019-04-25T11:55:09.124Z,3.10
2019-04-25T11:57:38.746Z,1.65
2019-04-25T12:00:21.335Z,2.47
2019-04-25T12:02:39.931Z,1.62
2019-04-25T12:05:09.340Z,3.22
2019-04-25T12:07:38.678Z,3.65
2019-04-25T12:10:08.548Z,4.17
2019-04-25T12:12:39.895Z,8.58
2019-04-25T12:15:14.924Z,3.40
2019-04-25T12:17:44.859Z,4.53
2019-04-25T12:20:14.558Z,2.90
2019-04-25T12:22:48.280Z,3.65
2019-04-25T12:25:17.788Z,6.25
2019-04-25T12:27:48.608Z,3.40
2019-04-25T12:30:18.201Z,5.45
2019-04-25T12:32:47.909Z,1.98
2019-04-25T12:35:20.211Z,2.60
2019-04-25T12:37:49.891Z,4.78
2019-04-25T12:40:21.251Z,4.03
2019-04-25T12:42:50.993Z,4.25
2019-04-25T12:45:22.031Z,2.58
2019-04-25T12:47:59.170Z,3.33
2019-04-25T12:50:29.189Z,2.33
2019-04-25T12:53:03.716Z,1.22
2019-04-25T12:55:34.222Z,2.70
2019-04-25T12:58:04.373Z,4.30
2019-04-25T13:00:34.233Z,5.67
2019-04-25T13:03:04.299Z,3.00
2019-04-25T13:05:36.572Z,2.95
2019-04-25T13:08:06.112Z,3.12
2019-04-25T13:10:35.914Z,1.27
2019-04-25T13:13:05.244Z,5.00
2019-04-25T13:15:34.707Z,4.42
2019-04-25T13:18:04.056Z,3.83
2019-04-25T13:20:33.396Z,2.15
2019-04-25T13:23:03.564Z,3.62
2019-04-25T13:25:34.694Z,2.98
2019-04-25T13:28:08.506Z,1.90
2019-04-25T13:30:42.538Z,3.00
2019-04-25T13:33:23.565Z,5.10
2019-04-25T13:35:58.833Z,3.47
2019-04-25T13:38:28.251Z,4.42
2019-04-25T13:40:58.254Z,3.62
2019-04-25T13:43:28.852Z,3.37
2019-04-25T13:45:58.204Z,6.20
2019-04-25T13:48:29.338Z,2.58
2019-04-25T13:50:58.810Z,4.95
2019-04-25T13:53:29.434Z,3.85
2019-04-25T13:55:59.091Z,18.20
2019-04-25T13:58:30.740Z,6.42
2019-04-25T14:01:12.338Z,1.87
2019-04-25T14:03:34.027Z,2.35
2019-04-25T14:06:04.761Z,3.87
2019-04-25T14:08:34.158Z,2.77
2019-04-25T14:11:05.155Z,1.55
2019-04-25T14:13:34.658Z,2.17
2019-04-25T14:16:25.481Z,3.65
2019-04-25T14:19:14.892Z,3.47
2019-04-25T14:21:44.299Z,3.75
2019-04-25T14:24:20.306Z,5.75
2019-04-25T14:26:44.683Z,3.08
2019-04-25T14:29:14.187Z,2.70
2019-04-25T14:31:47.906Z,3.77
2019-04-25T14:34:14.669Z,2.22
2019-04-25T14:36:44.358Z,2.50
2019-04-25T14:39:13.918Z,5.83
2019-04-25T14:41:43.347Z,5.72
2019-04-25T14:44:12.701Z,2.15
2019-04-25T14:46:42.165Z,3.25
2019-04-25T14:49:11.515Z,1.60
2019-04-25T14:51:40.951Z,2.85
2019-04-25T14:54:13.468Z,4.95
2019-04-25T14:56:50.191Z,4.08
2019-04-25T14:59:20.961Z,3.98
2019-04-25T15:01:50.848Z,2.22
2019-04-25T15:04:20.167Z,1.62
2019-04-25T15:06:49.503Z,2.15
2019-04-25T15:09:18.855Z,4.10
2019-04-25T15:11:48.273Z,4.15
2019-04-25T15:14:19.708Z,3.72
2019-04-25T15:16:49.058Z,2.70
2019-04-25T15:19:38.676Z,2.77
2019-04-25T15:22:20.176Z,4.40
2019-04-25T15:24:49.689Z,3.35
2019-04-25T15:27:19.094Z,5.15
2019-04-25T15:29:48.435Z,4.95
2019-04-25T15:32:19.483Z,3.42
2019-04-25T15:34:56.355Z,4.75
2019-04-25T15:37:30.493Z,3.83
2019-04-25T15:40:01.665Z,6.45
2019-04-25T15:42:41.913Z,4.42
2019-04-25T15:45:13.146Z,6.65
2019-04-25T15:47:45.528Z,5.55
2019-04-25T15:50:15.212Z,4.03
2019-04-25T15:52:45.002Z,6.97
2019-04-25T15:55:14.735Z,7.03
2019-04-25T15:57:44.113Z,3.75
2019-04-25T16:00:18.049Z,4.65
2019-04-25T16:02:47.448Z,5.20
2019-04-25T16:05:16.780Z,4.30
2019-04-25T16:07:46.103Z,7.20
2019-04-25T16:10:16.223Z,8.70
2019-04-25T16:12:45.553Z,4.20
2019-04-25T16:15:15.055Z,6.37
2019-04-25T16:17:44.375Z,5.00
2019-04-25T16:20:13.918Z,4.97
2019-04-25T16:22:43.242Z,2.85
2019-04-25T16:25:12.662Z,4.28
2019-04-25T16:27:42.055Z,3.67
2019-04-25T16:30:11.871Z,5.08
2019-04-25T16:32:41.397Z,3.60
2019-04-25T16:35:10.957Z,3.30
2019-04-25T16:37:41.306Z,2.87
2019-04-25T16:40:10.969Z,2.87
2019-04-25T16:42:41.752Z,2.92
2019-04-25T16:45:11.131Z,4.55
2019-04-25T16:47:40.513Z,5.37
2019-04-25T16:50:10.591Z,3.85
2019-04-25T16:52:39.927Z,3.65
2019-04-25T16:55:10.423Z,4.35
2019-04-25T16:57:39.789Z,2.72
2019-04-25T17:00:11.807Z,4.08
2019-04-25T17:02:45.283Z,2.30
2019-04-25T17:05:14.607Z,3.62
2019-04-25T17:07:43.958Z,3.83
2019-04-25T17:10:13.694Z,3.90
2019-04-25T17:12:43.087Z,3.85
2019-04-25T17:15:18.468Z,7.92
2019-04-25T17:17:51.914Z,4.25
2019-04-25T17:20:25.791Z,3.50
2019-04-25T17:22:55.124Z,4.35
2019-04-25T17:25:24.537Z,3.17
2019-04-25T17:27:58.877Z,2.33
2019-04-25T17:30:31.190Z,5.90
2019-04-25T17:33:05.239Z,4.58
2019-04-25T17:35:36.725Z,5.03
2019-04-25T17:38:10.654Z,3.17
2019-04-25T17:40:40.016Z,3.12
2019-04-25T17:43:11.160Z,3.27
2019-04-25T17:45:40.413Z,4.67
2019-04-25T17:48:11.021Z,4.22
2019-04-25T17:50:40.418Z,5.17
2019-04-25T17:53:09.780Z,5.10
2019-04-25T17:55:40.088Z,4.50
2019-04-25T17:58:09.427Z,5.20
2019-04-25T18:00:40.407Z,4.22
2019-04-25T18:03:10.961Z,7.58
2019-04-25T18:05:41.387Z,3.27
2019-04-25T18:08:11.615Z,4.97
2019-04-25T18:10:41.925Z,4.05
2019-04-25T18:13:11.543Z,5.85
2019-04-25T18:15:42.522Z,5.55
2019-04-25T18:18:13.502Z,6.53
2019-04-25T18:20:44.328Z,3.15
2019-04-25T18:23:31.559Z,3.58
2019-04-25T18:26:02.535Z,5.75
2019-04-25T18:28:42.343Z,6.80
2019-04-25T18:31:11.703Z,4.87
2019-04-25T18:33:41.798Z,4.53
2019-04-25T18:36:29.294Z,8.93
2019-04-25T18:39:00.306Z,3.60
2019-04-25T18:41:37.688Z,3.70
2019-04-25T18:44:14.589Z,4.65
2019-04-25T18:46:45.779Z,3.10
2019-04-25T18:49:15.113Z,5.55
2019-04-25T18:51:55.181Z,4.45
2019-04-25T18:54:19.521Z,4.95
2019-04-25T18:57:02.834Z,5.33
2019-04-25T18:59:42.363Z,3.83
2019-04-25T19:02:13.361Z,5.80
2019-04-25T19:04:59.946Z,3.85
2019-04-25T19:07:29.298Z,6.65
2019-04-25T19:09:58.635Z,3.47
2019-04-25T19:12:28.347Z,4.75
2019-04-25T19:14:57.710Z,3.70
2019-04-25T19:17:27.043Z,4.00
2019-04-25T19:19:56.433Z,7.03
2019-04-25T19:22:25.761Z,5.55
2019-04-25T19:24:55.092Z,6.45
2019-04-25T19:27:24.434Z,7.40
2019-04-25T19:29:54.764Z,4.92
2019-04-25T19:32:25.040Z,5.92
2019-04-25T19:34:54.452Z,6.35
2019-04-25T19:37:23.787Z,4.30
2019-04-25T19:40:12.712Z,3.60
2019-04-25T19:42:46.775Z,4.47
2019-04-25T19:45:16.329Z,3.20
2019-04-25T19:47:45.672Z,5.72
2019-04-25T19:50:15.147Z,4.37
2019-04-25T19:52:45.685Z,4.22
2019-04-25T19:55:15.044Z,4.53
2019-04-25T19:57:44.387Z,3.20
2019-04-25T20:00:13.931Z,3.20
2019-04-25T20:02:52.994Z,4.92
2019-04-25T20:05:30.104Z,2.22
2019-04-25T20:08:02.682Z,3.72
2019-04-25T20:10:34.805Z,3.40
2019-04-25T20:13:04.342Z,5.47
2019-04-25T20:15:33.667Z,4.10
2019-04-25T20:18:06.652Z,3.70
2019-04-25T20:20:36.263Z,3.95
2019-04-25T20:23:06.444Z,3.67
2019-04-25T20:25:35.841Z,3.83
2019-04-25T20:28:05.230Z,4.70
2019-04-25T20:30:34.569Z,2.00
2019-04-25T20:33:03.971Z,4.03
2019-04-25T20:35:33.375Z,5.28
2019-04-25T20:38:02.785Z,2.92
2019-04-25T20:40:32.130Z,4.40
2019-04-25T20:43:01.467Z,3.17
2019-04-25T20:45:30.921Z,2.22
2019-04-25T20:48:00.251Z,3.80
2019-04-25T20:50:29.654Z,3.15
2019-04-25T20:52:58.989Z,4.08
2019-04-25T20:55:28.347Z,5.40
2019-04-25T20:57:57.895Z,2.92
2019-04-25T21:00:43.864Z,4.47
2019-04-25T21:03:13.187Z,4.60
2019-04-25T21:05:43.084Z,3.17
2019-04-25T21:08:12.499Z,3.50
2019-04-25T21:10:41.913Z,4.65
2019-04-25T21:13:12.946Z,2.70
2019-04-25T21:15:46.947Z,4.47
2019-04-25T21:18:23.847Z,4.95
2019-04-25T21:20:53.350Z,3.00
2019-04-25T21:23:22.739Z,3.67
2019-04-25T21:25:52.909Z,4.30
2019-04-25T21:28:22.424Z,5.83
2019-04-25T21:30:53.090Z,3.15
2019-04-25T21:33:22.498Z,5.25
2019-04-25T21:35:53.267Z,5.67
2019-04-25T21:38:23.125Z,4.10
2019-04-25T21:41:05.698Z,4.10
2019-04-25T21:43:43.256Z,4.55
2019-04-25T21:46:12.992Z,3.75
2019-04-25T21:48:42.635Z,5.70
2019-04-25T21:51:30.082Z,4.87
2019-04-25T21:54:01.405Z,5.92
2019-04-25T21:56:31.173Z,5.17
2019-04-25T21:59:01.975Z,5.20
2019-04-25T22:01:34.521Z,3.98
2019-04-25T22:04:05.462Z,5.85
2019-04-25T22:06:35.183Z,3.70
2019-04-25T22:09:08.281Z,5.58
2019-04-25T22:11:37.799Z,5.10
2019-04-25T22:14:09.451Z,5.28
2019-04-25T22:16:39.248Z,6.45
2019-04-25T22:19:11.479Z,4.00
2019-04-25T22:21:41.173Z,5.65
2019-04-25T22:24:14.358Z,3.92
2019-04-25T22:26:41.626Z,5.70
2019-04-25T22:29:11.427Z,6.67
2019-04-25T22:31:48.926Z,7.03
2019-04-25T22:34:20.164Z,6.58
2019-04-25T22:36:49.635Z,6.25
2019-04-25T22:39:19.490Z,5.90
2019-04-25T22:41:50.011Z,6.72
2019-04-25T22:44:22.603Z,6.20
2019-04-25T22:46:54.154Z,8.07
2019-04-25T22:49:23.571Z,6.58
2019-04-25T22:51:53.034Z,6.62
2019-04-25T22:54:24.380Z,6.78
2019-04-25T22:56:53.795Z,6.90
2019-04-25T22:59:23.605Z,7.58
2019-04-25T23:01:54.651Z,7.72
2019-04-25T23:04:38.101Z,5.50
2019-04-25T23:07:07.962Z,5.17
2019-04-25T23:09:39.001Z,6.72
2019-04-25T23:12:08.935Z,6.95
2019-04-25T23:14:38.657Z,6.92
2019-04-25T23:17:11.973Z,5.83
2019-04-25T23:19:41.380Z,5.40
2019-04-25T23:22:11.546Z,7.70
2019-04-25T23:24:52.000Z,6.28
2019-04-25T23:27:23.050Z,6.65
2019-04-25T23:29:52.473Z,6.83
2019-04-25T23:32:22.392Z,9.15
2019-04-25T23:34:51.776Z,8.30
2019-04-25T23:37:21.222Z,8.10
2019-04-25T23:39:50.672Z,9.05
2019-04-25T23:42:20.062Z,7.47
2019-04-25T23:44:49.790Z,8.90
2019-04-25T23:47:20.202Z,10.20
2019-04-25T23:49:49.575Z,8.43
2019-04-25T23:52:21.311Z,6.25
2019-04-25T23:54:50.660Z,8.18
2019-04-25T23:57:20.399Z,8.45
2019-04-25T23:59:49.827Z,7.47
